EGKK/LGW METAR and TAF weather

Enter ICAO airport designator
Station Type Date Time Source
EGKK METAR 2022/08/16 19:20 UTC NOAA

EGKK 161920Z VRB02KT CAVOK 21/15 Q1008


Station Type Date Time Source
EGKK Decoded METAR 2022/08/16 19:20 UTC NOAA

London / Gatwick Airport, United Kingdom (EGKK) 51-09N 000-11W 0M
Aug 16, 2022 - 03:20 PM EDT / 2022.08.16 1920 UTC
Wind: Variable at 2 MPH (2 KT):0
Visibility: greater than 7 mile(s):0
Temperature: 69 F (21 C)
Dew Point: 59 F (15 C)
Relative Humidity: 68%
Pressure (altimeter): 29.77 in. Hg (1008 hPa)
ob: EGKK 161920Z VRB02KT CAVOK 21/15 Q1008
cycle: 19

Station Type Date Time Source
EGKK TAF 2022/08/16 18:09 UTC NOAA

TAF EGKK 161701Z 1618/1724 04006KT 9999 SCT045 PROB30
TEMPO 1702/1706 4000 BR BKN006
TEMPO 1706/1719 6000 SHRA BKN012CB PROB30
TEMPO 1706/1719 3000 +TSGR BKN008CB
BECMG 1719/1721 BKN008 PROB30
TEMPO 1721/1724 4000 RADZ BKN004

Example: see airport list